This is the latest recevied weather packets stored in our database for station/object JA3YAI-13. If no packets are shown the sender has not sent any weather packets the latest 10 day(s).
| Time | Temp. | Humidity | Pressure | Rain* | Wind** | Luminosity | Snow |
|---|---|---|---|---|---|---|---|
| 1777714585 | 18.33° C | 83% | 1003.9 hPa | 0 mm | - | - | - |
| 1777713985 | 18.89° C | 81% | 1004 hPa | 0 mm | - | - | - |
| 1777713385 | 19.44° C | 80% | 1004 hPa | 0 mm | - | - | - |
| 1777712785 | 19.44° C | 79% | 1003.8 hPa | 0 mm | - | - | - |
| 1777712184 | 20° C | 77% | 1003.7 hPa | 0 mm | - | - | - |
| 1777711584 | 20.56° C | 73% | 1003.5 hPa | 0 mm | - | - | - |
| 1777710985 | 21.11° C | 74% | 1003.4 hPa | 0 mm | - | - | - |
| 1777710385 | 21.11° C | 74% | 1003.4 hPa | 0 mm | - | - | - |
| 1777709785 | 21.11° C | 73% | 1003.6 hPa | 0 mm | - | - | - |
| 1777709184 | 21.67° C | 73% | 1003.3 hPa | 0 mm | - | - | - |
| 1777708584 | 21.67° C | 72% | 1003.2 hPa | 0 mm | - | - | - |
| 1777707985 | 21.67° C | 72% | 1003.3 hPa | 0 mm | - | - | - |
| 1777707385 | 21.67° C | 70% | 1003.3 hPa | 0 mm | - | - | - |
| 1777706784 | 22.22° C | 68% | 1003.5 hPa | 0 mm | - | - | - |
| 1777706184 | 22.78° C | 66% | 1003.2 hPa | 0 mm | - | - | - |
| 1777705585 | 22.78° C | 67% | 1003.4 hPa | 0 mm | - | - | - |
| 1777704985 | 22.78° C | 65% | 1003 hPa | 0 mm | - | - | - |
| 1777704384 | 22.22° C | 66% | 1003.2 hPa | 0 mm | - | - | - |
| 1777703784 | 21.67° C | 65% | 1003.1 hPa | 0 mm | - | - | - |
| 1777703184 | 22.78° C | 63% | 1003.1 hPa | 0 mm | - | - | - |
| 1777702585 | 23.33° C | 61% | 1003.3 hPa | 0 mm | - | - | - |
| 1777701985 | 23.33° C | 61% | 1003.5 hPa | 0 mm | - | - | - |
| 1777701385 | 23.89° C | 59% | 1003.2 hPa | 0 mm | - | - | - |
| 1777700784 | 24.44° C | 58% | 1003.3 hPa | 0 mm | - | - | - |
| 1777700185 | 23.33° C | 61% | 1003.4 hPa | 0 mm | - | - | - |
* Rain latest hour (hover to see other rain measurements)
** Current wind speed in m/s (hover to see current wind gust speed)